Impacts METAR Board
IDs:

KSFO - San Francisco Intl, CA, US

Updated at: 0100 UTC 17 Jul 2019
Potential Impact None Slight Moderate High
Time 16/13Z 16/14Z 16/15Z 16/16Z 16/17Z 16/18Z 16/19Z 16/20Z 16/21Z 16/22Z 16/23Z 17/00Z 17/01Z
Temp58 60 62 63 66 67 71 70 74 74 72 71 67
Dewpt53 55 55 55 54 54 55 54 53 51 51 51 53
Altim29.91 29.92 29.92 29.93 29.93 29.93 29.93 29.93 29.91 29.92 29.92 29.90 29.89
VIS10 10 10 10 10 10 10 10 10 10 10 10 10
CIG-- -- -- -- -- -- -- -- -- -- -- -- --
CoverFEWFEWFEWFEWFEWFEWFEWFEWFEWFEWFEWFEWFEW
FltCatVFRVFRVFRVFRVFRVFRVFRVFRVFRVFRVFRVFRVFR
WX--------------------------
WDir300290330310310300300290280270270270260
WSpd8 8 5 10 13 12 12 20 22 28 23 21 24
WGst-- -- -- -- -- -- 18 25 29 35 31 28 30
Raw hourly METARs
KSFO 161256Z 30008KT 10SM FEW004 FEW009 14/12 A2991 RMK AO2 SLP130 T01440117 $
KSFO 161356Z 29008KT 10SM FEW008 16/13 A2992 RMK AO2 SLP131 T01560128 $
KSFO 161456Z 33005KT 10SM FEW009 17/13 A2992 RMK AO2 SLP133 T01670128 53003 $
KSFO 161556Z 31010KT 10SM FEW010 FEW200 17/13 A2993 RMK AO2 SLP135 T01720128 $
KSFO 161656Z 31013KT 10SM FEW010 FEW200 19/12 A2993 RMK AO2 SLP133 T01890122
KSFO 161756Z 30012KT 10SM FEW010 FEW200 19/12 A2993 RMK AO2 SLP134 T01940122 10194 20144
KSFO 161856Z 30012G18KT 10SM FEW035 22/13 A2993 RMK AO2 SLP134 T02170128
KSFO 161956Z 29020G25KT 10SM FEW035 21/12 A2993 RMK AO2 SLP134 T02110122
KSFO 162056Z 28022G29KT 10SM FEW035 FEW200 23/12 A2991 RMK AO2 PK WND 27029/2055 SLP127 T02330117 58007
KSFO 162156Z 27028G35KT 10SM FEW013 FEW200 23/11 A2992 RMK AO2 PK WND 26035/2151 SLP130 T02330106
KSFO 162256Z 27023G31KT 10SM FEW013 FEW200 22/11 A2992 RMK AO2 PK WND 28033/2204 SLP132 T02220106
KSFO 162356Z 27021G28KT 10SM FEW013 FEW200 22/11 A2990 RMK AO2 PK WND 27030/2334 SLP126 T02170106 10250 20194 58001
KSFO 170056Z 26024G30KT 10SM FEW013 19/12 A2989 RMK AO2 PK WND 26030/0051 SLP121 T01940117



Page loaded:  01:13 UTC  |   06:13 PM Pacific  |   07:13 PM Mountain  |   08:13 PM Central  |   09:13 PM Eastern

 

ADVISORIES

FORECASTS

FORECASTS

OBSERVATIONS

USER TOOLS

ABOUT US